Time;durP1;ratioP1;P1;durP2;ratioP2;P2;SDS_P1;SDS_P2;PMS_P1;PMS_P2;Temp;Humidity;BMP_temperature;BMP_pressure;BME280_temperature;BME280_humidity;BME280_pressure;Samples;Min_cycle;Max_cycle;Signal;HPM_P1;HPM_P2
2023/09/09 00:01:54;;;;;;;11.10;7.55;;;;;;;;;;4996288;28;20049;-84
2023/09/09 00:04:21;;;;;;;6.97;6.35;;;;;;;;;;4996271;28;20141;-84
2023/09/09 00:06:49;;;;;;;7.22;6.53;;;;;;;;;;4996120;28;20048;-84
2023/09/09 00:09:16;;;;;;;8.50;7.63;;;;;;;;;;4995971;28;20060;-83
2023/09/09 00:11:43;;;;;;;10.55;7.38;;;;;;;;;;4996029;28;20049;-84
2023/09/09 00:14:12;;;;;;;7.85;7.07;;;;;;;;;;4996302;28;20053;-84
2023/09/09 00:16:39;;;;;;;7.80;7.07;;;;;;;;;;4996253;28;20283;-84
2023/09/09 00:19:06;;;;;;;10.88;7.28;;;;;;;;;;4996076;28;20100;-84
2023/09/09 00:21:34;;;;;;;9.07;7.30;;;;;;;;;;4996244;28;20478;-84
2023/09/09 00:24:01;;;;;;;8.45;7.50;;;;;;;;;;4996063;28;20054;-84
2023/09/09 00:26:31;;;;;;;8.10;6.93;;;;;;;;;;5013439;28;20073;-84
2023/09/09 00:28:58;;;;;;;8.73;7.20;;;;;;;;;;5013229;28;20486;-84
2023/09/09 00:31:25;;;;;;;8.75;7.57;;;;;;;;;;4995946;28;20050;-85
2023/09/09 00:33:53;;;;;;;11.23;7.75;;;;;;;;;;4995961;28;20046;-84
2023/09/09 00:36:20;;;;;;;8.90;7.95;;;;;;;;;;4996305;28;20046;-84
2023/09/09 00:38:47;;;;;;;10.82;7.10;;;;;;;;;;4997375;28;20065;-85
2023/09/09 00:41:18;;;;;;;8.65;7.75;;;;;;;;;;5003648;28;20072;-84
2023/09/09 00:43:46;;;;;;;9.60;7.75;;;;;;;;;;5006655;28;20057;-84
2023/09/09 00:46:16;;;;;;;8.07;7.25;;;;;;;;;;5013257;28;20084;-84
2023/09/09 00:48:43;;;;;;;9.15;8.10;;;;;;;;;;4995899;28;20100;-84
2023/09/09 00:51:12;;;;;;;9.88;7.25;;;;;;;;;;4995318;28;20057;-84
2023/09/09 00:53:39;;;;;;;10.63;7.32;;;;;;;;;;4995693;28;20559;-84
2023/09/09 00:56:06;;;;;;;13.52;8.43;;;;;;;;;;4995446;28;20130;-84
2023/09/09 00:58:34;;;;;;;10.18;7.85;;;;;;;;;;5013279;28;20116;-84
2023/09/09 01:01:03;;;;;;;8.93;8.02;;;;;;;;;;4995761;28;20065;-84
2023/09/09 01:03:30;;;;;;;8.10;7.30;;;;;;;;;;4995395;28;20525;-84
2023/09/09 01:05:59;;;;;;;9.30;7.65;;;;;;;;;;4995927;28;20128;-85
2023/09/09 01:08:27;;;;;;;9.73;8.82;;;;;;;;;;5012840;28;20050;-84
2023/09/09 01:10:55;;;;;;;12.45;7.68;;;;;;;;;;4995526;28;20458;-84
2023/09/09 01:13:22;;;;;;;15.52;8.00;;;;;;;;;;4999181;28;20062;-84
2023/09/09 01:15:50;;;;;;;9.75;8.38;;;;;;;;;;4999387;28;20128;-84
2023/09/09 01:18:18;;;;;;;12.52;8.63;;;;;;;;;;4999441;28;20045;-83
2023/09/09 01:20:49;;;;;;;9.50;8.50;;;;;;;;;;4999099;28;20050;-85
2023/09/09 01:23:16;;;;;;;9.27;7.70;;;;;;;;;;4999227;28;20046;-84
2023/09/09 01:25:44;;;;;;;9.77;8.10;;;;;;;;;;5016373;28;20069;-84
2023/09/09 01:28:11;;;;;;;7.55;6.90;;;;;;;;;;5016400;28;20084;-84
2023/09/09 01:30:38;;;;;;;8.68;7.78;;;;;;;;;;4999355;28;20462;-84
2023/09/09 01:33:05;;;;;;;8.73;7.93;;;;;;;;;;4999136;28;20556;-84
2023/09/09 01:35:33;;;;;;;8.90;7.85;;;;;;;;;;4998969;28;20084;-84
2023/09/09 01:38:00;;;;;;;10.85;8.60;;;;;;;;;;4999145;28;20130;-84
2023/09/09 01:40:28;;;;;;;10.40;8.30;;;;;;;;;;4998761;28;20089;-83
2023/09/09 01:42:55;;;;;;;9.38;8.48;;;;;;;;;;4998729;28;20052;-84
2023/09/09 01:45:22;;;;;;;10.55;8.45;;;;;;;;;;4999002;28;20053;-84
2023/09/09 01:47:49;;;;;;;10.65;8.30;;;;;;;;;;4998623;28;20069;-84
2023/09/09 01:50:17;;;;;;;9.07;7.55;;;;;;;;;;4998541;28;20060;-84
2023/09/09 01:52:44;;;;;;;12.20;8.25;;;;;;;;;;4998855;28;20395;-84
2023/09/09 01:55:13;;;;;;;10.38;7.93;;;;;;;;;;5015861;28;20056;-84
2023/09/09 01:57:41;;;;;;;10.07;8.02;;;;;;;;;;4998764;28;20065;-84
2023/09/09 02:00:10;;;;;;;8.30;7.45;;;;;;;;;;4998839;28;20042;-84
2023/09/09 02:02:37;;;;;;;10.07;8.48;;;;;;;;;;4998190;28;20057;-84
2023/09/09 02:05:04;;;;;;;9.95;8.10;;;;;;;;;;4998007;28;20046;-84
2023/09/09 02:07:32;;;;;;;8.63;7.82;;;;;;;;;;4998006;28;20132;-84
2023/09/09 02:09:59;;;;;;;10.00;8.55;;;;;;;;;;4998074;28;20054;-84
2023/09/09 02:12:28;;;;;;;9.10;8.20;;;;;;;;;;4998080;28;20046;-84
2023/09/09 02:14:55;;;;;;;12.45;8.45;;;;;;;;;;4997925;28;20046;-84
2023/09/09 02:17:23;;;;;;;9.93;8.32;;;;;;;;;;4997756;28;20092;-84
2023/09/09 02:19:54;;;;;;;10.13;8.68;;;;;;;;;;4997779;28;20054;-84
2023/09/09 02:22:22;;;;;;;10.68;9.50;;;;;;;;;;4997384;28;20042;-84
2023/09/09 02:24:56;;;;;;;9.65;8.75;;;;;;;;;;4997870;28;20050;-83
2023/09/09 02:27:25;;;;;;;9.93;8.93;;;;;;;;;;4998212;28;20050;-84
2023/09/09 02:29:53;;;;;;;11.20;9.52;;;;;;;;;;4997758;28;20137;-84
2023/09/09 02:32:20;;;;;;;11.63;8.45;;;;;;;;;;4998083;28;20136;-84
2023/09/09 02:34:50;;;;;;;10.07;8.10;;;;;;;;;;4998096;28;20058;-84
2023/09/09 02:37:21;;;;;;;10.40;8.63;;;;;;;;;;5014939;28;20058;-84
2023/09/09 02:39:51;;;;;;;9.55;8.52;;;;;;;;;;4998033;28;20127;-84
2023/09/09 02:42:20;;;;;;;9.48;8.52;;;;;;;;;;4997543;28;20092;-84
2023/09/09 02:44:49;;;;;;;12.18;9.15;;;;;;;;;;5015003;28;20054;-84
2023/09/09 02:47:17;;;;;;;10.43;9.18;;;;;;;;;;4997555;28;20056;-84
2023/09/09 02:49:44;;;;;;;12.32;10.05;;;;;;;;;;5014931;28;20050;-84
2023/09/09 02:52:13;;;;;;;12.80;8.38;;;;;;;;;;4997717;28;20057;-84
2023/09/09 02:54:41;;;;;;;10.02;9.00;;;;;;;;;;5014743;28;20068;-84
2023/09/09 02:57:10;;;;;;;13.80;8.93;;;;;;;;;;5014674;28;20465;-84
2023/09/09 02:59:38;;;;;;;12.90;9.63;;;;;;;;;;4997415;28;20054;-85
2023/09/09 03:02:05;;;;;;;14.50;9.77;;;;;;;;;;4997547;28;20042;-84
2023/09/09 03:04:33;;;;;;;9.55;8.55;;;;;;;;;;4997588;28;20469;-84
2023/09/09 03:07:00;;;;;;;11.48;9.27;;;;;;;;;;4997141;28;20076;-84
2023/09/09 03:09:29;;;;;;;10.05;8.95;;;;;;;;;;4997018;28;20077;-84
2023/09/09 03:11:57;;;;;;;10.60;9.13;;;;;;;;;;5014581;28;20050;-84
2023/09/09 03:14:24;;;;;;;9.85;8.77;;;;;;;;;;4997004;28;20095;-85
2023/09/09 03:16:52;;;;;;;13.25;9.98;;;;;;;;;;4997236;28;20046;-84
2023/09/09 03:19:19;;;;;;;11.00;8.93;;;;;;;;;;4997387;28;20050;-84
2023/09/09 03:21:47;;;;;;;11.60;9.20;;;;;;;;;;5014837;28;20050;-85
2023/09/09 03:24:14;;;;;;;11.40;9.57;;;;;;;;;;4997898;28;20069;-84
2023/09/09 03:26:42;;;;;;;10.95;9.63;;;;;;;;;;5022265;28;20049;-85
2023/09/09 03:29:09;;;;;;;11.30;9.38;;;;;;;;;;5020984;28;20092;-84
2023/09/09 03:31:36;;;;;;;11.30;10.10;;;;;;;;;;4997431;28;20108;-85
2023/09/09 03:34:04;;;;;;;11.55;9.40;;;;;;;;;;4996363;28;20148;-84
2023/09/09 03:36:35;;;;;;;13.38;9.55;;;;;;;;;;4997071;28;20502;-83
2023/09/09 03:39:03;;;;;;;11.10;9.63;;;;;;;;;;4996961;28;20050;-84
2023/09/09 03:41:31;;;;;;;12.15;9.18;;;;;;;;;;5012549;28;20050;-85
2023/09/09 03:43:58;;;;;;;10.93;9.50;;;;;;;;;;5013857;28;20107;-84
2023/09/09 03:46:25;;;;;;;10.52;9.10;;;;;;;;;;5013946;28;20049;-84
2023/09/09 03:48:53;;;;;;;11.38;9.70;;;;;;;;;;4996289;28;20046;-85
2023/09/09 03:51:20;;;;;;;11.27;9.25;;;;;;;;;;5014051;28;20466;-84
2023/09/09 03:53:47;;;;;;;11.52;10.30;;;;;;;;;;4996388;28;20046;-84
2023/09/09 03:56:15;;;;;;;12.15;10.23;;;;;;;;;;5013747;28;20050;-84
2023/09/09 03:58:42;;;;;;;10.75;9.65;;;;;;;;;;4996689;28;20061;-86
2023/09/09 04:01:12;;;;;;;11.95;9.43;;;;;;;;;;4996578;28;20046;-85
2023/09/09 04:03:39;;;;;;;12.05;10.43;;;;;;;;;;4996122;28;20050;-85
2023/09/09 04:06:08;;;;;;;11.45;10.25;;;;;;;;;;5013488;28;20054;-85
2023/09/09 04:08:36;;;;;;;11.93;10.18;;;;;;;;;;4996162;28;20045;-85
2023/09/09 04:11:03;;;;;;;14.07;10.02;;;;;;;;;;4995866;28;20141;-85
2023/09/09 04:13:37;;;;;;;13.80;10.80;;;;;;;;;;4996561;28;20081;-85
2023/09/09 04:16:05;;;;;;;11.45;10.25;;;;;;;;;;4995983;28;20085;-84
2023/09/09 04:18:33;;;;;;;11.70;9.75;;;;;;;;;;5013255;28;20050;-85
2023/09/09 04:21:12;;;;;;;12.57;11.05;;;;;;;;;;4997445;28;20057;-84
2023/09/09 04:23:40;;;;;;;11.45;10.27;;;;;;;;;;4996132;28;20046;-85
2023/09/09 04:26:08;;;;;;;11.90;10.10;;;;;;;;;;4995776;28;20495;-85
2023/09/09 04:28:35;;;;;;;14.40;10.30;;;;;;;;;;5013203;28;20099;-85
2023/09/09 04:31:02;;;;;;;10.73;9.65;;;;;;;;;;5013249;28;20054;-85
2023/09/09 04:33:30;;;;;;;12.18;10.48;;;;;;;;;;4995817;28;20504;-85
2023/09/09 04:35:57;;;;;;;11.35;10.10;;;;;;;;;;5012885;28;20046;-84
2023/09/09 04:38:24;;;;;;;12.98;10.98;;;;;;;;;;4995727;28;20054;-84
2023/09/09 04:40:51;;;;;;;11.82;10.63;;;;;;;;;;4995663;28;20406;-85
2023/09/09 04:43:20;;;;;;;13.20;11.60;;;;;;;;;;4995459;28;20518;-84
2023/09/09 04:45:48;;;;;;;12.68;10.77;;;;;;;;;;4996690;28;20050;-84
2023/09/09 04:48:15;;;;;;;12.18;10.88;;;;;;;;;;5016975;28;20081;-84
2023/09/09 04:50:42;;;;;;;14.13;11.57;;;;;;;;;;5017087;28;20159;-84
2023/09/09 04:53:10;;;;;;;12.50;10.63;;;;;;;;;;4999824;28;20104;-85
2023/09/09 04:55:41;;;;;;;13.07;10.27;;;;;;;;;;5000067;28;20061;-84
2023/09/09 04:58:10;;;;;;;13.18;10.93;;;;;;;;;;5017294;28;20113;-85
2023/09/09 05:00:38;;;;;;;13.25;10.23;;;;;;;;;;5017349;28;20079;-85
2023/09/09 05:03:06;;;;;;;14.18;11.13;;;;;;;;;;5017197;28;20069;-84
2023/09/09 05:05:33;;;;;;;11.18;10.07;;;;;;;;;;5017053;28;20510;-84
2023/09/09 05:08:01;;;;;;;14.27;11.18;;;;;;;;;;4999843;28;20046;-85
2023/09/09 05:10:29;;;;;;;13.68;11.38;;;;;;;;;;4999330;28;20062;-84
2023/09/09 05:12:57;;;;;;;11.70;10.50;;;;;;;;;;4999535;28;20054;-84
2023/09/09 05:15:25;;;;;;;14.93;11.93;;;;;;;;;;5016679;28;20053;-84
2023/09/09 05:17:52;;;;;;;19.42;12.50;;;;;;;;;;4999409;28;20050;-84
2023/09/09 05:20:20;;;;;;;14.27;11.25;;;;;;;;;;5016681;28;20104;-84
2023/09/09 05:22:47;;;;;;;12.63;10.77;;;;;;;;;;4999281;28;20509;-85
2023/09/09 05:25:14;;;;;;;13.98;11.52;;;;;;;;;;4999339;28;20100;-85
2023/09/09 05:27:43;;;;;;;13.93;11.80;;;;;;;;;;4999320;28;20108;-84
2023/09/09 05:30:11;;;;;;;12.60;11.30;;;;;;;;;;4999465;28;20057;-84
2023/09/09 05:32:38;;;;;;;14.27;10.93;;;;;;;;;;5016483;28;20049;-84
2023/09/09 05:35:06;;;;;;;18.02;11.20;;;;;;;;;;4998881;28;20133;-85
2023/09/09 05:37:33;;;;;;;13.82;12.43;;;;;;;;;;5016486;28;20046;-84
2023/09/09 05:40:00;;;;;;;16.38;12.52;;;;;;;;;;5016320;28;20054;-84
2023/09/09 05:42:30;;;;;;;17.15;14.85;;;;;;;;;;4987319;28;20133;-84
2023/09/09 05:44:58;;;;;;;19.33;16.38;;;;;;;;;;4989040;28;20046;-84
2023/09/09 05:47:25;;;;;;;17.77;14.80;;;;;;;;;;4989056;28;20521;-84
2023/09/09 05:49:52;;;;;;;20.73;16.20;;;;;;;;;;4986557;28;20410;-84
2023/09/09 05:52:19;;;;;;;16.23;13.52;;;;;;;;;;4979102;28;20077;-83
2023/09/09 05:54:46;;;;;;;11.40;9.95;;;;;;;;;;4978418;28;20396;-83
2023/09/09 05:57:14;;;;;;;8.90;7.63;;;;;;;;;;4982395;28;20053;-84
2023/09/09 05:59:41;;;;;;;7.40;6.63;;;;;;;;;;5004126;28;20050;-84
2023/09/09 06:02:08;;;;;;;9.18;5.72;;;;;;;;;;4997980;28;20089;-83
2023/09/09 06:04:36;;;;;;;6.55;5.95;;;;;;;;;;4998512;28;20103;-84
2023/09/09 06:07:04;;;;;;;5.88;5.32;;;;;;;;;;4985007;28;20136;-84
2023/09/09 06:09:31;;;;;;;7.05;4.93;;;;;;;;;;5009790;28;20050;-83
2023/09/09 06:11:58;;;;;;;5.90;4.85;;;;;;;;;;4998317;28;20486;-84
2023/09/09 06:14:26;;;;;;;6.10;4.95;;;;;;;;;;4998765;28;20046;-83
2023/09/09 06:16:53;;;;;;;6.28;5.15;;;;;;;;;;4997824;28;20054;-84
2023/09/09 06:19:20;;;;;;;6.85;5.47;;;;;;;;;;4998014;28;20099;-83
2023/09/09 06:21:48;;;;;;;6.82;5.15;;;;;;;;;;5015046;28;20057;-83
2023/09/09 06:24:15;;;;;;;6.45;5.85;;;;;;;;;;5015379;28;20056;-83
2023/09/09 06:26:43;;;;;;;6.95;5.90;;;;;;;;;;4997726;28;20046;-82
2023/09/09 06:29:11;;;;;;;7.63;6.00;;;;;;;;;;5014999;28;20057;-83
2023/09/09 06:31:39;;;;;;;8.70;5.93;;;;;;;;;;4997482;28;20494;-83
2023/09/09 06:34:06;;;;;;;8.35;6.20;;;;;;;;;;5009555;28;20066;-83
2023/09/09 06:36:33;;;;;;;6.65;5.90;;;;;;;;;;4997503;28;20478;-83
2023/09/09 06:39:00;;;;;;;7.15;6.45;;;;;;;;;;4978168;28;20259;-83
2023/09/09 06:41:28;;;;;;;8.85;5.97;;;;;;;;;;4977901;28;20061;-83
2023/09/09 06:43:55;;;;;;;9.30;6.38;;;;;;;;;;4977652;28;20066;-83
2023/09/09 06:46:23;;;;;;;6.75;5.25;;;;;;;;;;4978021;28;20054;-82
2023/09/09 06:48:50;;;;;;;6.78;5.60;;;;;;;;;;4994491;28;20050;-83
2023/09/09 06:51:18;;;;;;;7.88;5.55;;;;;;;;;;4995068;28;20060;-83
2023/09/09 06:53:45;;;;;;;6.45;5.68;;;;;;;;;;4977880;28;20097;-84
2023/09/09 06:56:15;;;;;;;7.70;5.80;;;;;;;;;;4983898;28;20051;-84
2023/09/09 06:58:42;;;;;;;5.88;5.38;;;;;;;;;;4957331;28;20042;-83
2023/09/09 07:01:11;;;;;;;6.07;5.57;;;;;;;;;;4958339;28;20051;-84
2023/09/09 07:03:38;;;;;;;13.63;5.65;;;;;;;;;;4975400;28;20078;-83
2023/09/09 07:06:06;;;;;;;8.90;5.60;;;;;;;;;;4958216;28;20055;-84
2023/09/09 07:08:39;;;;;;;6.20;5.60;;;;;;;;;;4957345;28;20047;-84
2023/09/09 07:11:06;;;;;;;7.53;5.65;;;;;;;;;;4957715;28;20506;-82
2023/09/09 07:13:33;;;;;;;6.00;5.45;;;;;;;;;;4958438;28;20464;-83
2023/09/09 07:16:01;;;;;;;6.57;5.32;;;;;;;;;;4957678;28;20162;-84
2023/09/09 07:18:29;;;;;;;6.07;5.00;;;;;;;;;;4957486;28;20081;-84
2023/09/09 07:20:59;;;;;;;8.02;6.35;;;;;;;;;;4958134;28;20078;-84
2023/09/09 07:23:27;;;;;;;5.80;5.10;;;;;;;;;;4957760;28;20054;-84
2023/09/09 07:25:54;;;;;;;13.32;5.15;;;;;;;;;;4974946;28;20043;-85
2023/09/09 07:28:23;;;;;;;7.50;5.43;;;;;;;;;;4974918;28;20466;-84
2023/09/09 07:31:03;;;;;;;6.32;5.70;;;;;;;;;;5076284;28;20376;-80
2023/09/09 07:33:30;;;;;;;5.95;5.45;;;;;;;;;;5075119;28;20056;-79
2023/09/09 07:35:58;;;;;;;5.40;4.88;;;;;;;;;;5075949;28;20480;-80
2023/09/09 07:38:25;;;;;;;6.82;5.53;;;;;;;;;;5075866;28;20128;-80
2023/09/09 07:40:57;;;;;;;6.10;5.25;;;;;;;;;;5072866;28;20049;-79
2023/09/09 07:43:24;;;;;;;5.63;5.07;;;;;;;;;;5075593;28;20059;-80
2023/09/09 07:45:52;;;;;;;9.55;5.78;;;;;;;;;;5076622;28;20071;-80
2023/09/09 07:48:20;;;;;;;9.38;5.60;;;;;;;;;;5075365;28;20098;-80
2023/09/09 07:50:55;;;;;;;5.65;5.03;;;;;;;;;;5073810;28;20499;-80
2023/09/09 07:53:23;;;;;;;9.50;5.20;;;;;;;;;;5075517;28;20049;-80
2023/09/09 07:55:51;;;;;;;7.47;4.55;;;;;;;;;;5073915;28;20048;-80
2023/09/09 07:58:18;;;;;;;6.55;4.90;;;;;;;;;;5074642;28;20045;-80
2023/09/09 08:00:46;;;;;;;5.82;4.88;;;;;;;;;;5076704;28;20044;-80
2023/09/09 08:03:14;;;;;;;7.00;4.70;;;;;;;;;;5074847;28;20481;-80
2023/09/09 08:05:42;;;;;;;5.18;4.47;;;;;;;;;;5076153;28;20053;-81
2023/09/09 08:08:10;;;;;;;6.90;4.93;;;;;;;;;;5076279;28;20116;-81
2023/09/09 08:10:37;;;;;;;5.22;3.97;;;;;;;;;;5075439;28;20108;-81
2023/09/09 08:13:05;;;;;;;4.57;4.18;;;;;;;;;;5076047;28;20051;-81
2023/09/09 08:15:32;;;;;;;7.78;5.10;;;;;;;;;;5073756;28;20131;-81
2023/09/09 08:18:07;;;;;;;5.35;4.15;;;;;;;;;;5075622;28;20408;-81
2023/09/09 08:20:35;;;;;;;6.13;4.20;;;;;;;;;;5073971;28;20458;-80
2023/09/09 08:23:02;;;;;;;5.15;4.47;;;;;;;;;;5074528;28;20110;-81
2023/09/09 08:25:32;;;;;;;3.58;3.28;;;;;;;;;;5073381;28;20084;-81
2023/09/09 08:28:03;;;;;;;4.70;4.30;;;;;;;;;;5074778;28;20060;-79
2023/09/09 08:30:31;;;;;;;5.88;3.92;;;;;;;;;;5075289;28;20077;-81
2023/09/09 08:32:58;;;;;;;5.75;3.90;;;;;;;;;;5073813;28;20049;-81
2023/09/09 08:35:26;;;;;;;4.32;4.03;;;;;;;;;;5073453;28;20041;-81
2023/09/09 08:37:53;;;;;;;7.75;4.00;;;;;;;;;;5075170;28;20110;-81
2023/09/09 08:40:20;;;;;;;4.10;3.80;;;;;;;;;;5070818;28;20044;-81
2023/09/09 08:42:47;;;;;;;4.57;3.65;;;;;;;;;;5061864;28;20053;-81
2023/09/09 08:45:37;;;;;;;6.07;4.03;;;;;;;;;;5060384;28;20053;-81
2023/09/09 08:48:07;;;;;;;7.57;3.58;;;;;;;;;;5060533;28;20060;-81
2023/09/09 08:50:39;;;;;;;7.15;3.80;;;;;;;;;;5061851;28;20056;-82
2023/09/09 08:53:07;;;;;;;3.40;3.10;;;;;;;;;;5060366;28;20045;-81
2023/09/09 08:55:37;;;;;;;4.05;3.70;;;;;;;;;;5060293;28;20446;-82
2023/09/09 08:58:05;;;;;;;4.38;3.67;;;;;;;;;;5061267;28;20041;-81
2023/09/09 09:00:33;;;;;;;5.45;3.58;;;;;;;;;;5060711;28;20095;-81
2023/09/09 09:03:01;;;;;;;4.93;3.38;;;;;;;;;;5060132;28;20496;-82
2023/09/09 09:05:33;;;;;;;6.47;4.20;;;;;;;;;;5062535;28;20056;-81
2023/09/09 09:08:01;;;;;;;3.95;3.05;;;;;;;;;;5064038;28;20084;-81
2023/09/09 09:10:28;;;;;;;3.72;3.47;;;;;;;;;;5060231;28;20079;-80
2023/09/09 09:12:56;;;;;;;3.78;3.40;;;;;;;;;;5058035;28;20491;-81
2023/09/09 09:15:24;;;;;;;4.60;3.35;;;;;;;;;;5057197;28;20074;-82
2023/09/09 09:17:56;;;;;;;3.88;3.40;;;;;;;;;;5056829;28;20049;-81
2023/09/09 09:20:27;;;;;;;4.50;3.63;;;;;;;;;;5055665;28;20048;-81
2023/09/09 09:22:57;;;;;;;3.83;3.50;;;;;;;;;;5057487;28;20088;-81
2023/09/09 09:25:26;;;;;;;5.40;3.88;;;;;;;;;;5057361;28;20049;-82
2023/09/09 09:27:59;;;;;;;4.40;4.10;;;;;;;;;;5058037;28;20130;-81
2023/09/09 09:30:28;;;;;;;5.43;3.60;;;;;;;;;;5056161;28;20102;-81
2023/09/09 09:32:56;;;;;;;4.30;3.05;;;;;;;;;;5057008;28;20071;-81
2023/09/09 09:35:25;;;;;;;2.65;2.55;;;;;;;;;;5058452;28;20053;-81
2023/09/09 09:38:02;;;;;;;3.00;2.80;;;;;;;;;;5058243;28;20557;-82
2023/09/09 09:40:30;;;;;;;3.83;3.08;;;;;;;;;;5077368;22;20117;-81
2023/09/09 09:42:58;;;;;;;2.88;2.78;;;;;;;;;;5015410;28;20096;-81
2023/09/09 09:45:29;;;;;;;3.08;2.92;;;;;;;;;;5014672;28;20049;-81
2023/09/09 09:47:57;;;;;;;3.20;2.88;;;;;;;;;;5015944;28;20046;-82
2023/09/09 09:50:30;;;;;;;2.97;2.67;;;;;;;;;;5016619;28;20497;-81
2023/09/09 09:52:59;;;;;;;3.10;2.90;;;;;;;;;;5017812;28;20049;-83
2023/09/09 09:55:27;;;;;;;4.47;2.80;;;;;;;;;;5016753;28;20049;-83
2023/09/09 09:57:55;;;;;;;3.30;3.00;;;;;;;;;;5016189;28;20056;-82
2023/09/09 10:00:23;;;;;;;2.85;2.70;;;;;;;;;;5017459;28;20050;-82
2023/09/09 10:02:55;;;;;;;2.60;2.50;;;;;;;;;;5015165;28;20050;-81
2023/09/09 10:05:23;;;;;;;3.33;2.72;;;;;;;;;;5017102;28;20061;-81
2023/09/09 10:07:53;;;;;;;2.50;2.30;;;;;;;;;;5015671;28;20054;-82
2023/09/09 10:10:23;;;;;;;2.92;2.65;;;;;;;;;;5013113;28;20446;-81
2023/09/09 10:13:09;;;;;;;3.03;2.83;;;;;;;;;;5017269;28;20104;-82
2023/09/09 10:15:37;;;;;;;2.78;2.58;;;;;;;;;;5014614;28;20085;-82
2023/09/09 10:18:05;;;;;;;2.83;2.72;;;;;;;;;;5015404;28;20129;-80
2023/09/09 10:20:34;;;;;;;2.97;2.75;;;;;;;;;;5016387;28;20107;-80
2023/09/09 10:23:02;;;;;;;2.40;2.30;;;;;;;;;;5016085;28;20082;-83
2023/09/09 10:25:30;;;;;;;2.78;2.58;;;;;;;;;;5014752;28;20056;-80
2023/09/09 10:27:58;;;;;;;4.85;2.80;;;;;;;;;;5015053;28;20112;-83
2023/09/09 10:30:26;;;;;;;4.65;2.60;;;;;;;;;;5015798;28;20104;-82
2023/09/09 10:32:56;;;;;;;3.72;2.58;;;;;;;;;;5013903;28;20555;-82
2023/09/09 10:35:24;;;;;;;3.15;2.28;;;;;;;;;;5014098;28;20481;-81
2023/09/09 10:37:51;;;;;;;2.40;2.30;;;;;;;;;;5014332;28;20077;-80
2023/09/09 10:40:19;;;;;;;2.60;2.40;;;;;;;;;;5013663;28;20049;-81
2023/09/09 10:42:47;;;;;;;2.70;2.50;;;;;;;;;;5015624;28;20061;-83
2023/09/09 10:45:28;;;;;;;2.83;2.45;;;;;;;;;;5014672;28;20054;-81
2023/09/09 10:48:01;;;;;;;2.72;2.53;;;;;;;;;;5017484;28;20058;-81
2023/09/09 10:51:00;;;;;;;4.43;2.58;;;;;;;;;;5014812;28;20045;-80
2023/09/09 10:53:29;;;;;;;3.67;2.50;;;;;;;;;;4992721;28;20133;-80
2023/09/09 10:55:58;;;;;;;2.85;2.65;;;;;;;;;;5015423;28;20050;-80
2023/09/09 10:58:36;;;;;;;2.95;2.65;;;;;;;;;;5014318;28;20630;-81
2023/09/09 11:01:03;;;;;;;3.00;2.80;;;;;;;;;;5014784;28;20057;-80
2023/09/09 11:03:45;;;;;;;4.38;2.67;;;;;;;;;;5013052;28;20140;-82
2023/09/09 11:06:31;;;;;;;2.63;2.08;;;;;;;;;;5013054;28;20496;-80
2023/09/09 11:09:01;;;;;;;2.50;2.30;;;;;;;;;;5014053;28;20177;-81
2023/09/09 11:11:33;;;;;;;2.70;2.50;;;;;;;;;;5012665;28;20417;-80
2023/09/09 11:14:05;;;;;;;3.08;2.88;;;;;;;;;;5014053;28;20073;-81
2023/09/09 11:16:33;;;;;;;4.18;2.88;;;;;;;;;;5011968;28;20073;-79
2023/09/09 11:19:10;;;;;;;3.20;3.00;;;;;;;;;;5012105;28;20050;-81
2023/09/09 11:21:41;;;;;;;2.97;2.78;;;;;;;;;;5014545;28;20056;-80
2023/09/09 11:24:09;;;;;;;3.00;2.80;;;;;;;;;;5014043;28;20075;-81
2023/09/09 11:26:40;;;;;;;3.05;2.85;;;;;;;;;;5014309;28;20050;-81
2023/09/09 11:29:08;;;;;;;3.85;2.80;;;;;;;;;;5013947;28;20061;-81
2023/09/09 11:31:51;;;;;;;;;;;;;;;;;;5015544;28;20046;-82
2023/09/09 11:34:28;;;;;;;2.97;2.65;;;;;;;;;;5013509;28;19921;-82
2023/09/09 11:36:55;;;;;;;3.40;2.80;;;;;;;;;;5012499;28;20493;-80
2023/09/09 11:39:22;;;;;;;3.22;2.95;;;;;;;;;;5013297;28;20046;-81
2023/09/09 11:41:49;;;;;;;3.00;2.75;;;;;;;;;;5013535;28;20128;-81
2023/09/09 11:44:17;;;;;;;4.25;2.90;;;;;;;;;;5016187;28;20058;-81
2023/09/09 11:46:45;;;;;;;3.90;2.72;;;;;;;;;;5015811;28;20086;-81
2023/09/09 11:49:13;;;;;;;2.95;2.85;;;;;;;;;;5013689;28;20050;-81
2023/09/09 11:51:40;;;;;;;2.90;2.70;;;;;;;;;;5011779;28;20042;-81
2023/09/09 11:54:11;;;;;;;3.75;3.25;;;;;;;;;;5013693;28;20046;-80
2023/09/09 11:56:38;;;;;;;4.68;2.78;;;;;;;;;;5012621;28;20068;-80
2023/09/09 11:59:09;;;;;;;2.88;2.47;;;;;;;;;;5014228;28;20491;-80
2023/09/09 12:01:43;;;;;;;3.90;2.72;;;;;;;;;;5013184;28;20489;-82
2023/09/09 12:04:12;;;;;;;3.10;2.90;;;;;;;;;;5015467;28;20405;-83
2023/09/09 12:06:40;;;;;;;3.88;3.10;;;;;;;;;;5013473;28;20060;-81
2023/09/09 12:09:08;;;;;;;2.58;2.47;;;;;;;;;;5012989;28;20054;-82
2023/09/09 12:11:35;;;;;;;3.30;2.90;;;;;;;;;;5012847;28;20096;-80
2023/09/09 12:14:03;;;;;;;3.67;2.65;;;;;;;;;;5012594;28;20135;-81
2023/09/09 12:16:31;;;;;;;3.25;3.05;;;;;;;;;;5014378;28;20128;-80
2023/09/09 12:18:58;;;;;;;3.55;2.97;;;;;;;;;;5015886;28;20054;-81
2023/09/09 12:21:25;;;;;;;4.07;3.03;;;;;;;;;;5016495;28;20054;-80
2023/09/09 12:24:00;;;;;;;3.03;2.83;;;;;;;;;;5016967;28;20054;-80
2023/09/09 12:26:27;;;;;;;3.10;2.95;;;;;;;;;;5020205;28;20508;-82
2023/09/09 12:29:09;;;;;;;3.00;2.78;;;;;;;;;;5017548;28;20053;-82
2023/09/09 12:31:55;;;;;;;5.90;3.30;;;;;;;;;;5018654;28;20052;-82
2023/09/09 12:34:24;;;;;;;5.32;3.10;;;;;;;;;;5016433;28;20496;-82
2023/09/09 12:36:56;;;;;;;2.85;2.67;;;;;;;;;;5017135;28;20118;-81
2023/09/09 12:39:24;;;;;;;3.60;3.08;;;;;;;;;;5015931;28;20050;-82
2023/09/09 12:42:02;;;;;;;3.30;3.10;;;;;;;;;;5016120;28;20520;-80
2023/09/09 12:44:33;;;;;;;4.97;3.22;;;;;;;;;;5016200;28;20480;-81
2023/09/09 12:47:07;;;;;;;3.25;2.75;;;;;;;;;;5015273;28;20093;-80
2023/09/09 12:49:34;;;;;;;3.20;3.00;;;;;;;;;;5015409;28;20429;-80
2023/09/09 12:52:02;;;;;;;6.43;2.78;;;;;;;;;;5016397;28;20564;-80
2023/09/09 12:54:29;;;;;;;4.35;2.58;;;;;;;;;;5015452;28;20100;-79
2023/09/09 12:56:56;;;;;;;3.53;2.83;;;;;;;;;;5016357;28;20050;-80
2023/09/09 12:59:23;;;;;;;3.28;3.08;;;;;;;;;;5015173;28;20056;-80
2023/09/09 13:01:51;;;;;;;3.17;2.95;;;;;;;;;;5015487;28;20049;-81
2023/09/09 13:04:22;;;;;;;4.55;3.15;;;;;;;;;;5018000;28;20058;-80
2023/09/09 13:06:49;;;;;;;7.03;2.67;;;;;;;;;;5017835;28;20050;-79
2023/09/09 13:09:17;;;;;;;3.03;2.83;;;;;;;;;;5015371;28;20490;-80
2023/09/09 13:11:44;;;;;;;3.20;2.90;;;;;;;;;;5017239;28;20054;-80
2023/09/09 13:14:11;;;;;;;3.00;2.70;;;;;;;;;;5018752;28;20050;-80
2023/09/09 13:16:52;;;;;;;4.32;3.10;;;;;;;;;;5018272;28;20054;-81
2023/09/09 13:19:19;;;;;;;3.03;2.83;;;;;;;;;;5016964;28;20046;-79
2023/09/09 13:21:48;;;;;;;4.75;2.80;;;;;;;;;;5015484;28;20053;-81
2023/09/09 13:24:15;;;;;;;3.13;2.65;;;;;;;;;;5015858;28;20050;-80
2023/09/09 13:26:42;;;;;;;4.25;3.88;;;;;;;;;;5016105;28;20489;-81
2023/09/09 13:29:09;;;;;;;4.13;3.22;;;;;;;;;;5016705;28;20045;-81
2023/09/09 13:31:37;;;;;;;3.00;2.80;;;;;;;;;;5017393;28;20056;-80
2023/09/09 13:34:04;;;;;;;3.70;3.20;;;;;;;;;;5015713;28;20060;-80
2023/09/09 13:36:32;;;;;;;3.33;3.00;;;;;;;;;;5014822;28;20077;-80
2023/09/09 13:38:59;;;;;;;3.20;2.97;;;;;;;;;;5015236;28;20050;-81
2023/09/09 13:41:28;;;;;;;6.47;3.10;;;;;;;;;;5013650;28;20054;-80
2023/09/09 13:43:56;;;;;;;4.07;3.22;;;;;;;;;;5015130;28;20046;-80
2023/09/09 13:46:24;;;;;;;3.05;2.78;;;;;;;;;;5014111;28;20493;-79
2023/09/09 13:48:51;;;;;;;3.45;3.03;;;;;;;;;;5014834;28;20046;-81
2023/09/09 13:51:19;;;;;;;5.25;2.85;;;;;;;;;;5016599;28;20050;-81
2023/09/09 13:53:46;;;;;;;3.33;3.10;;;;;;;;;;5016607;28;20054;-80
2023/09/09 13:56:13;;;;;;;3.20;2.92;;;;;;;;;;5017765;28;20072;-81
2023/09/09 13:58:41;;;;;;;3.17;2.70;;;;;;;;;;5016490;28;20054;-80
2023/09/09 14:01:08;;;;;;;3.10;2.90;;;;;;;;;;5016176;28;20050;-79
2023/09/09 14:03:35;;;;;;;4.40;3.20;;;;;;;;;;5016591;28;20081;-81
2023/09/09 14:06:03;;;;;;;3.50;2.47;;;;;;;;;;5016585;28;20509;-81
2023/09/09 14:08:30;;;;;;;3.40;3.10;;;;;;;;;;5014675;28;20076;-80
2023/09/09 14:10:57;;;;;;;4.57;2.97;;;;;;;;;;5016585;28;20117;-81
2023/09/09 14:13:24;;;;;;;4.22;3.20;;;;;;;;;;5015562;28;20046;-81
2023/09/09 14:15:51;;;;;;;4.50;2.88;;;;;;;;;;5015580;28;20050;-81
2023/09/09 14:18:19;;;;;;;2.85;2.65;;;;;;;;;;5016285;28;20073;-81
2023/09/09 14:20:46;;;;;;;3.38;3.08;;;;;;;;;;5015278;28;20053;-80
2023/09/09 14:23:15;;;;;;;3.15;2.88;;;;;;;;;;5015347;28;20057;-81
2023/09/09 14:25:42;;;;;;;3.28;2.97;;;;;;;;;;5014807;28;20054;-82
2023/09/09 14:28:09;;;;;;;3.17;2.97;;;;;;;;;;5013658;28;20081;-81
2023/09/09 14:30:36;;;;;;;3.65;2.88;;;;;;;;;;5015313;28;20049;-80
2023/09/09 14:33:06;;;;;;;4.03;2.80;;;;;;;;;;5014738;28;20046;-81
2023/09/09 14:35:34;;;;;;;2.85;2.65;;;;;;;;;;5015417;28;20046;-81
2023/09/09 14:38:01;;;;;;;3.47;2.90;;;;;;;;;;5016576;28;20050;-80
2023/09/09 14:40:29;;;;;;;6.88;2.85;;;;;;;;;;5015162;28;20493;-80
2023/09/09 14:42:56;;;;;;;3.60;3.33;;;;;;;;;;5015708;28;20050;-80
2023/09/09 14:45:23;;;;;;;4.45;3.38;;;;;;;;;;5014926;28;20046;-80
2023/09/09 14:47:50;;;;;;;3.08;2.72;;;;;;;;;;5012587;28;20053;-80